createdAt,value
2023-04-18T00:02:00.290Z,19.33
2023-04-18T00:04:29.251Z,17.40
2023-04-18T00:06:58.228Z,14.93
2023-04-18T00:09:27.270Z,17.17
2023-04-18T00:11:55.995Z,14.23
2023-04-18T00:14:25.029Z,15.80
2023-04-18T00:16:54.396Z,16.10
2023-04-18T00:19:24.524Z,17.47
2023-04-18T00:21:53.381Z,17.93
2023-04-18T00:24:22.404Z,14.37
2023-04-18T00:26:51.742Z,14.00
2023-04-18T00:29:20.437Z,18.90
2023-04-18T00:31:49.158Z,15.90
2023-04-18T00:34:18.374Z,19.37
2023-04-18T00:36:48.423Z,17.80
2023-04-18T00:39:17.365Z,15.50
2023-04-18T00:41:46.111Z,17.00
2023-04-18T00:44:15.060Z,18.53
2023-04-18T00:46:44.023Z,17.30
2023-04-18T00:49:13.637Z,17.43
2023-04-18T00:51:42.422Z,17.93
2023-04-18T00:54:13.813Z,18.90
2023-04-18T00:56:43.895Z,14.70
2023-04-18T00:59:12.768Z,17.43
2023-04-18T01:01:41.884Z,16.87
2023-04-18T01:04:10.951Z,20.30
2023-04-18T01:06:40.406Z,17.53
2023-04-18T01:09:16.400Z,16.97
2023-04-18T01:17:36.020Z,26.57
2023-04-18T01:20:05.890Z,23.80
2023-04-18T01:22:35.148Z,21.10
2023-04-18T01:25:10.643Z,17.67
2023-04-18T01:27:39.396Z,20.43
2023-04-18T01:30:10.048Z,17.47
2023-04-18T01:32:38.717Z,17.37
2023-04-18T01:35:08.317Z,17.80
2023-04-18T01:37:36.836Z,17.13
2023-04-18T01:40:06.378Z,20.30
2023-04-18T01:42:36.439Z,20.17
2023-04-18T01:45:06.333Z,17.90
2023-04-18T01:47:35.405Z,16.70
2023-04-18T01:50:04.888Z,20.57
2023-04-18T01:52:33.640Z,15.03
2023-04-18T01:55:04.217Z,15.73
2023-04-18T01:57:37.012Z,20.27
2023-04-18T02:00:06.621Z,16.90
2023-04-18T02:02:35.907Z,16.17
2023-04-18T02:05:05.389Z,19.00
2023-04-18T02:07:34.162Z,15.00
2023-04-18T02:10:02.973Z,17.60
2023-04-18T02:12:31.769Z,19.90
2023-04-18T02:15:01.799Z,18.03
2023-04-18T02:17:30.656Z,22.23
2023-04-18T02:19:59.516Z,16.37
2023-04-18T02:22:28.110Z,17.57
2023-04-18T02:24:56.838Z,18.33
2023-04-18T02:27:25.728Z,21.57
2023-04-18T02:29:54.635Z,24.90
2023-04-18T02:32:26.975Z,22.30
2023-04-18T02:34:55.981Z,19.60
2023-04-18T02:37:24.834Z,14.87
2023-04-18T02:39:55.052Z,13.90
2023-04-18T02:42:23.769Z,14.17
2023-04-18T02:44:52.412Z,15.37
2023-04-18T02:47:21.821Z,14.20
2023-04-18T02:49:52.127Z,12.20
2023-04-18T02:52:23.829Z,13.47
2023-04-18T02:54:52.772Z,14.40
2023-04-18T02:57:21.538Z,13.07
2023-04-18T02:59:50.204Z,15.33
2023-04-18T03:02:19.218Z,13.40
2023-04-18T03:04:51.045Z,13.80
2023-04-18T03:07:44.456Z,12.10
2023-04-18T03:10:13.901Z,16.43
2023-04-18T03:12:42.899Z,12.87
2023-04-18T03:15:12.508Z,11.20
2023-04-18T03:17:41.481Z,13.10
2023-04-18T03:20:11.244Z,13.63
2023-04-18T03:22:39.861Z,13.10
2023-04-18T03:25:10.983Z,10.67
2023-04-18T03:27:39.673Z,10.77
2023-04-18T03:30:11.391Z,11.87
2023-04-18T03:32:42.311Z,10.07
2023-04-18T03:35:15.045Z,10.90
2023-04-18T03:37:43.660Z,12.17
2023-04-18T03:40:14.466Z,13.60
2023-04-18T03:42:43.565Z,9.63
2023-04-18T03:45:12.878Z,11.77
2023-04-18T03:47:42.827Z,13.10
2023-04-18T03:50:15.167Z,11.53
2023-04-18T03:52:44.067Z,11.93
2023-04-18T03:55:15.126Z,12.50
2023-04-18T03:57:43.752Z,12.73
2023-04-18T04:00:13.878Z,11.10
2023-04-18T04:02:47.241Z,11.80
2023-04-18T04:05:16.205Z,11.90
2023-04-18T04:07:45.321Z,9.77
2023-04-18T04:10:15.404Z,11.40
2023-04-18T04:12:44.223Z,8.93
2023-04-18T04:15:13.537Z,8.80
2023-04-18T04:17:42.454Z,10.27
2023-04-18T04:20:15.196Z,8.03
2023-04-18T04:22:44.097Z,11.03
2023-04-18T04:25:14.168Z,11.60
2023-04-18T04:27:44.813Z,8.20
2023-04-18T04:30:14.420Z,7.87
2023-04-18T04:32:44.917Z,8.83
2023-04-18T04:35:13.694Z,9.80
2023-04-18T04:37:44.424Z,10.63
2023-04-18T04:40:15.990Z,9.20
2023-04-18T04:42:46.359Z,9.70
2023-04-18T04:45:15.735Z,8.50
2023-04-18T04:47:44.568Z,7.90
2023-04-18T04:50:15.960Z,9.97
2023-04-18T04:52:44.756Z,8.50
2023-04-18T04:55:13.519Z,9.33
2023-04-18T04:57:42.218Z,8.43
2023-04-18T05:00:14.481Z,7.43
2023-04-18T05:02:45.769Z,9.03
2023-04-18T05:05:15.294Z,11.37
2023-04-18T05:07:43.969Z,11.90
2023-04-18T05:10:13.013Z,8.50
2023-04-18T05:12:41.937Z,8.73
2023-04-18T05:15:13.677Z,8.07
2023-04-18T05:17:42.609Z,9.13
2023-04-18T05:20:12.294Z,9.00
2023-04-18T05:22:40.919Z,6.90
2023-04-18T05:25:12.806Z,10.10
2023-04-18T05:27:42.519Z,10.30
2023-04-18T05:30:13.037Z,8.30
2023-04-18T05:32:42.121Z,8.80
2023-04-18T05:35:11.665Z,10.07
2023-04-18T05:37:40.853Z,10.53
2023-04-18T05:40:12.344Z,17.23
2023-04-18T05:42:42.738Z,9.63
2023-04-18T05:45:15.531Z,9.90
2023-04-18T05:47:44.135Z,13.17
2023-04-18T05:50:18.569Z,8.93
2023-04-18T05:52:48.241Z,10.73
2023-04-18T05:55:17.095Z,9.23
2023-04-18T05:57:46.097Z,9.33
2023-04-18T06:00:17.549Z,12.07
2023-04-18T06:02:46.277Z,9.83
2023-04-18T06:05:15.504Z,12.53
2023-04-18T06:07:44.488Z,8.77
2023-04-18T06:10:13.888Z,8.20
2023-04-18T06:12:42.565Z,10.30
2023-04-18T06:15:12.848Z,8.83
2023-04-18T06:17:42.742Z,8.30
2023-04-18T06:20:16.543Z,8.10
2023-04-18T06:22:45.368Z,10.03
2023-04-18T06:25:14.178Z,10.63
2023-04-18T06:27:43.448Z,8.07
2023-04-18T06:30:15.608Z,7.33
2023-04-18T06:32:46.249Z,8.73
2023-04-18T06:35:15.423Z,8.90
2023-04-18T06:37:45.271Z,7.77
2023-04-18T06:40:14.664Z,8.70
2023-04-18T06:42:44.102Z,7.10
2023-04-18T06:45:13.457Z,7.13
2023-04-18T06:47:42.651Z,6.00
2023-04-18T06:50:13.465Z,6.00
2023-04-18T06:52:44.683Z,6.03
2023-04-18T06:55:14.602Z,7.73
2023-04-18T06:57:46.429Z,5.83
2023-04-18T07:00:16.474Z,5.77
2023-04-18T07:02:45.539Z,6.10
2023-04-18T07:05:22.198Z,5.20
2023-04-18T07:07:51.133Z,6.70
2023-04-18T07:10:20.431Z,6.70
2023-04-18T07:12:49.267Z,8.13
2023-04-18T07:15:18.361Z,5.50
2023-04-18T07:17:49.384Z,4.73
2023-04-18T07:20:23.665Z,4.20
2023-04-18T07:22:57.205Z,4.93
2023-04-18T07:25:26.156Z,4.43
2023-04-18T07:27:54.821Z,7.00
2023-04-18T07:30:23.855Z,6.10
2023-04-18T07:32:54.725Z,6.03
2023-04-18T07:35:24.840Z,5.47
2023-04-18T07:37:54.711Z,3.17
2023-04-18T07:40:23.304Z,4.13
2023-04-18T07:42:52.169Z,3.23
2023-04-18T07:45:21.050Z,3.90
2023-04-18T07:47:49.575Z,3.30
2023-04-18T07:50:18.145Z,4.80
2023-04-18T07:52:48.781Z,3.40
2023-04-18T07:55:17.762Z,3.90
2023-04-18T07:57:50.429Z,3.53
2023-04-18T08:00:20.789Z,4.40
2023-04-18T08:02:50.387Z,3.10
2023-04-18T08:05:25.336Z,6.03
2023-04-18T08:07:57.493Z,3.27
2023-04-18T08:10:26.499Z,3.00
2023-04-18T08:13:01.387Z,2.60
2023-04-18T08:15:39.795Z,3.87
2023-04-18T08:18:13.056Z,2.97
2023-04-18T08:20:42.411Z,2.90
2023-04-18T08:23:13.468Z,6.50
2023-04-18T08:25:47.585Z,3.47
2023-04-18T08:28:19.230Z,3.40
2023-04-18T08:30:49.643Z,3.70
2023-04-18T08:33:19.635Z,3.83
2023-04-18T08:35:51.697Z,2.80
2023-04-18T08:38:21.828Z,2.43
2023-04-18T08:40:51.049Z,2.60
2023-04-18T08:43:19.808Z,4.17
2023-04-18T08:45:49.063Z,2.40
2023-04-18T08:48:18.742Z,1.90
2023-04-18T08:50:50.978Z,2.27
2023-04-18T08:53:24.796Z,2.60
2023-04-18T08:55:58.178Z,3.80
2023-04-18T08:58:27.753Z,2.20
2023-04-18T09:01:04.741Z,2.73
2023-04-18T09:03:40.873Z,3.07
2023-04-18T09:06:12.989Z,2.63
2023-04-18T09:08:48.538Z,2.23
2023-04-18T09:11:27.621Z,2.23
2023-04-18T09:14:00.537Z,2.63
2023-04-18T09:16:46.880Z,4.00
2023-04-18T09:19:18.907Z,3.30
2023-04-18T09:21:49.145Z,3.00
2023-04-18T09:24:27.471Z,2.50
2023-04-18T09:26:58.880Z,3.10
2023-04-18T09:29:49.678Z,2.53
2023-04-18T09:32:25.248Z,3.43
2023-04-18T09:35:03.422Z,2.73
2023-04-18T09:37:36.509Z,3.90
2023-04-18T09:40:19.391Z,2.30
2023-04-18T09:42:48.179Z,2.30
2023-04-18T09:45:19.036Z,3.23
2023-04-18T09:47:48.083Z,3.50
2023-04-18T09:50:18.570Z,3.17
2023-04-18T09:52:47.470Z,2.43
2023-04-18T09:55:18.855Z,2.30
2023-04-18T09:57:49.058Z,2.17
2023-04-18T10:00:23.842Z,2.83
2023-04-18T10:02:59.589Z,2.97
2023-04-18T10:05:29.717Z,3.73
2023-04-18T10:07:59.262Z,3.37
2023-04-18T10:10:29.424Z,2.83
2023-04-18T10:12:59.830Z,3.00
2023-04-18T10:15:29.926Z,2.80
2023-04-18T10:18:05.076Z,2.50
2023-04-18T10:20:36.318Z,3.40
2023-04-18T10:23:38.738Z,5.63
2023-04-18T10:26:09.899Z,2.93
2023-04-18T10:28:53.857Z,2.50
2023-04-18T10:31:24.605Z,4.37
2023-04-18T10:34:04.692Z,4.47
2023-04-18T10:37:06.445Z,3.10
2023-04-18T10:39:54.392Z,2.57
2023-04-18T10:42:59.959Z,2.63
2023-04-18T10:45:31.522Z,3.00
2023-04-18T10:48:30.227Z,3.03
2023-04-18T10:51:24.171Z,9.17
2023-04-18T10:53:54.801Z,5.97
2023-04-18T10:56:28.298Z,2.77
2023-04-18T10:59:03.472Z,3.13
2023-04-18T11:01:39.440Z,5.17
2023-04-18T11:04:16.339Z,3.10
2023-04-18T11:06:53.473Z,4.43
2023-04-18T11:09:25.347Z,2.97
2023-04-18T11:12:05.273Z,2.57
2023-04-18T11:14:45.299Z,4.03
2023-04-18T11:17:24.177Z,4.30
2023-04-18T11:20:01.155Z,3.73
2023-04-18T11:22:31.732Z,2.10
2023-04-18T11:25:02.448Z,1.97
2023-04-18T11:27:32.253Z,1.87
2023-04-18T11:30:02.790Z,2.40
2023-04-18T11:32:31.152Z,1.97
2023-04-18T11:35:01.617Z,3.37
2023-04-18T11:37:34.410Z,2.13
2023-04-18T11:40:03.982Z,2.20
2023-04-18T11:42:35.631Z,2.50
2023-04-18T11:45:12.290Z,3.23
2023-04-18T11:47:42.293Z,1.47
2023-04-18T11:50:12.645Z,1.30
2023-04-18T11:52:44.393Z,1.90
2023-04-18T11:55:19.465Z,1.80
2023-04-18T11:57:53.287Z,5.00
2023-04-18T12:00:33.951Z,1.37
2023-04-18T12:03:04.554Z,2.90
2023-04-18T12:05:35.361Z,1.13
2023-04-18T12:08:12.235Z,1.33
2023-04-18T12:10:48.120Z,1.43
2023-04-18T12:13:21.080Z,1.10
2023-04-18T12:15:51.859Z,4.40
2023-04-18T12:18:21.830Z,1.60
2023-04-18T12:20:53.504Z,1.73
2023-04-18T12:23:37.504Z,1.43
2023-04-18T12:26:07.562Z,2.13
2023-04-18T12:28:37.023Z,1.53
2023-04-18T12:31:07.832Z,1.23
2023-04-18T12:33:40.224Z,1.10
2023-04-18T12:36:11.501Z,1.00
2023-04-18T12:38:40.563Z,0.80
2023-04-18T12:41:13.146Z,1.73
2023-04-18T12:43:44.080Z,1.53
2023-04-18T12:46:14.136Z,1.03
2023-04-18T12:48:43.181Z,1.43
2023-04-18T12:51:12.088Z,5.80
2023-04-18T12:53:40.796Z,3.53
2023-04-18T12:56:09.806Z,1.23
2023-04-18T12:58:38.596Z,1.50
2023-04-18T13:01:09.525Z,5.00
2023-04-18T13:03:40.277Z,1.50
2023-04-18T13:06:09.727Z,4.13
2023-04-18T13:08:39.146Z,4.00
2023-04-18T13:11:08.168Z,1.37
2023-04-18T13:13:36.987Z,2.33
2023-04-18T13:16:07.026Z,1.03
2023-04-18T13:18:36.800Z,7.13
2023-04-18T13:21:08.410Z,0.90
2023-04-18T13:23:38.391Z,1.90
2023-04-18T13:26:09.232Z,1.83
2023-04-18T13:28:40.789Z,5.50
2023-04-18T13:31:09.970Z,1.53
2023-04-18T13:33:39.018Z,2.13
2023-04-18T13:36:12.092Z,1.07
2023-04-18T13:38:41.905Z,1.67
2023-04-18T13:41:13.763Z,4.07
2023-04-18T13:43:42.845Z,5.23
2023-04-18T13:46:11.950Z,2.30
2023-04-18T13:48:43.036Z,2.10
2023-04-18T13:51:13.805Z,1.80
2023-04-18T13:53:42.831Z,1.27
2023-04-18T13:56:13.667Z,1.83
2023-04-18T13:58:44.715Z,1.57
2023-04-18T14:01:16.734Z,1.87
2023-04-18T14:03:48.527Z,1.87
2023-04-18T14:06:22.516Z,5.23
2023-04-18T14:08:52.348Z,7.93
2023-04-18T14:11:21.281Z,12.07
2023-04-18T14:13:50.096Z,11.70
2023-04-18T14:16:20.413Z,12.33
2023-04-18T14:18:54.199Z,12.53
2023-04-18T14:21:26.804Z,12.83
2023-04-18T14:24:04.572Z,5.87
2023-04-18T14:26:33.953Z,4.33
2023-04-18T14:29:06.196Z,3.17
2023-04-18T14:31:37.811Z,5.73
2023-04-18T14:34:08.465Z,7.67
2023-04-18T14:36:42.430Z,2.50
2023-04-18T14:39:11.860Z,1.90
2023-04-18T14:41:40.750Z,1.67
2023-04-18T14:44:09.831Z,1.50
2023-04-18T14:46:40.630Z,2.10
2023-04-18T14:49:12.342Z,2.43
2023-04-18T14:51:42.509Z,3.67
2023-04-18T14:54:11.137Z,12.43
2023-04-18T14:56:40.731Z,4.37
2023-04-18T14:59:10.065Z,4.80
2023-04-18T15:01:40.882Z,4.30
2023-04-18T15:04:12.304Z,4.80
2023-04-18T15:06:42.637Z,8.10
2023-04-18T15:09:11.546Z,8.17
2023-04-18T15:11:40.185Z,6.00
2023-04-18T15:14:10.993Z,6.83
2023-04-18T15:16:41.338Z,7.50
2023-04-18T15:19:11.416Z,6.93
2023-04-18T15:21:42.133Z,8.60
2023-04-18T15:24:11.279Z,6.80
2023-04-18T15:26:39.985Z,6.30
2023-04-18T15:29:33.884Z,8.77
2023-04-18T15:32:02.815Z,6.20
2023-04-18T15:34:34.730Z,8.07
2023-04-18T15:37:04.899Z,11.87
2023-04-18T15:39:33.574Z,14.90
2023-04-18T15:42:05.121Z,11.77
2023-04-18T15:44:33.870Z,15.93
2023-04-18T15:47:02.916Z,11.63
2023-04-18T15:49:32.613Z,10.00
2023-04-18T15:52:04.403Z,11.93
2023-04-18T15:54:36.866Z,12.30
2023-04-18T15:57:08.596Z,14.93
2023-04-18T15:59:37.804Z,15.80
2023-04-18T16:02:10.632Z,17.43
2023-04-18T16:04:39.678Z,14.93
2023-04-18T16:07:09.044Z,12.20
2023-04-18T16:09:42.444Z,10.43
2023-04-18T16:12:11.763Z,14.07
2023-04-18T16:14:40.238Z,16.47
2023-04-18T16:17:12.913Z,14.70
2023-04-18T16:19:44.093Z,14.10
2023-04-18T16:22:15.255Z,11.70
2023-04-18T16:24:45.305Z,15.73
2023-04-18T16:27:14.140Z,15.33
2023-04-18T16:29:46.436Z,11.30
2023-04-18T16:32:15.279Z,11.30
2023-04-18T16:34:44.886Z,9.80
2023-04-18T16:37:13.878Z,10.50
2023-04-18T16:39:42.833Z,8.23
2023-04-18T16:42:15.826Z,10.53
2023-04-18T16:44:48.405Z,10.07
2023-04-18T16:47:17.465Z,9.90
2023-04-18T16:49:48.072Z,9.50
2023-04-18T16:52:19.349Z,14.80
2023-04-18T16:54:49.754Z,9.40
2023-04-18T16:57:21.895Z,10.33
2023-04-18T16:59:50.581Z,9.13
2023-04-18T17:02:19.370Z,11.07
2023-04-18T17:04:48.379Z,8.30
2023-04-18T17:07:22.062Z,8.03
2023-04-18T17:09:51.353Z,10.63
2023-04-18T17:12:24.226Z,10.67
2023-04-18T17:14:52.811Z,11.97
2023-04-18T17:17:25.063Z,9.20
2023-04-18T17:19:53.911Z,9.53
2023-04-18T17:22:22.717Z,8.37
2023-04-18T17:24:51.403Z,11.30
2023-04-18T17:27:21.828Z,7.63
2023-04-18T17:29:50.764Z,7.30
2023-04-18T17:32:20.052Z,8.03
2023-04-18T17:34:48.977Z,8.70
2023-04-18T17:37:22.662Z,7.10
2023-04-18T17:39:52.948Z,9.20
2023-04-18T17:42:23.322Z,10.20
2023-04-18T17:44:52.149Z,7.20
2023-04-18T17:47:23.012Z,9.27
2023-04-18T17:49:54.245Z,8.50
2023-04-18T17:52:23.019Z,8.43
2023-04-18T17:54:53.749Z,11.60
2023-04-18T17:57:28.279Z,11.73
2023-04-18T17:59:56.911Z,9.30
2023-04-18T18:02:29.053Z,10.40
2023-04-18T18:04:58.126Z,10.03
2023-04-18T18:07:28.029Z,13.33
2023-04-18T18:09:59.779Z,10.90
2023-04-18T18:12:30.935Z,10.40
2023-04-18T18:15:04.192Z,9.10
2023-04-18T18:17:33.662Z,10.90
2023-04-18T18:20:05.245Z,10.93
2023-04-18T18:22:34.036Z,10.00
2023-04-18T18:25:05.059Z,15.13
2023-04-18T18:27:38.038Z,12.03
2023-04-18T18:30:12.687Z,26.77
2023-04-18T18:32:43.807Z,12.10
2023-04-18T18:35:14.171Z,13.63
2023-04-18T18:37:46.881Z,10.60
2023-04-18T18:40:16.872Z,13.43
2023-04-18T18:42:47.142Z,10.77
2023-04-18T18:45:20.115Z,11.47
2023-04-18T18:47:49.360Z,11.03
2023-04-18T18:50:20.904Z,11.83
2023-04-18T18:52:52.300Z,11.33
2023-04-18T18:55:21.335Z,18.50
2023-04-18T18:57:52.219Z,12.40
2023-04-18T19:00:23.987Z,15.00
2023-04-18T19:02:55.270Z,10.90
2023-04-18T19:05:25.130Z,11.00
2023-04-18T19:07:54.810Z,12.17
2023-04-18T19:10:23.850Z,11.10
2023-04-18T19:12:56.311Z,13.23
2023-04-18T19:15:28.209Z,10.40
2023-04-18T19:17:57.155Z,13.13
2023-04-18T19:20:27.523Z,9.83
2023-04-18T19:23:00.853Z,12.40
2023-04-18T19:25:30.107Z,12.53
2023-04-18T19:28:00.922Z,12.63
2023-04-18T19:30:30.355Z,34.20
2023-04-18T19:33:05.162Z,22.70
2023-04-18T19:35:36.553Z,27.00
2023-04-18T19:38:13.169Z,21.87
2023-04-18T19:40:44.700Z,18.80
2023-04-18T19:43:15.116Z,16.90
2023-04-18T19:45:46.368Z,14.57
2023-04-18T19:48:18.436Z,15.40
2023-04-18T19:50:49.957Z,15.53
2023-04-18T19:53:21.101Z,14.10
2023-04-18T19:55:50.343Z,12.37
2023-04-18T19:58:45.304Z,17.63
2023-04-18T20:01:14.181Z,14.93
2023-04-18T20:03:43.744Z,13.50
2023-04-18T20:06:12.907Z,16.27
2023-04-18T20:08:45.931Z,14.50
2023-04-18T20:11:15.713Z,17.20
2023-04-18T20:13:48.491Z,12.33
2023-04-18T20:16:19.617Z,14.13
2023-04-18T20:18:49.499Z,20.93
2023-04-18T20:21:18.810Z,55.23
2023-04-18T20:23:47.875Z,91.07
2023-04-18T20:26:17.139Z,88.77
2023-04-18T20:28:47.548Z,34.13
2023-04-18T20:31:17.157Z,27.80
2023-04-18T20:33:48.178Z,30.10
2023-04-18T20:36:20.228Z,27.43
2023-04-18T20:38:52.339Z,16.57
2023-04-18T20:41:24.260Z,20.30
2023-04-18T20:43:54.926Z,18.23
2023-04-18T20:46:23.662Z,16.93
2023-04-18T20:48:52.369Z,17.90
2023-04-18T20:51:21.607Z,24.53
2023-04-18T20:53:51.277Z,21.97
2023-04-18T20:56:20.625Z,14.50
2023-04-18T20:58:49.835Z,16.70
2023-04-18T21:01:20.070Z,15.17
2023-04-18T21:03:52.369Z,16.10
2023-04-18T21:06:23.559Z,12.50
2023-04-18T21:08:52.753Z,13.00
2023-04-18T21:11:21.590Z,14.67
2023-04-18T21:13:50.454Z,26.77
2023-04-18T21:16:21.506Z,20.80
2023-04-18T21:18:50.947Z,21.17
2023-04-18T21:21:19.574Z,15.57
2023-04-18T21:23:48.676Z,20.03
2023-04-18T21:26:19.855Z,24.30
2023-04-18T21:28:56.708Z,18.73
2023-04-18T21:31:27.572Z,15.73
2023-04-18T21:33:57.273Z,15.03
2023-04-18T21:36:28.715Z,14.30
2023-04-18T21:39:00.027Z,12.80
2023-04-18T21:41:29.178Z,13.27
2023-04-18T21:44:00.266Z,15.87
2023-04-18T21:46:30.712Z,22.97
2023-04-18T21:48:59.651Z,41.97
2023-04-18T21:51:28.746Z,17.40
2023-04-18T21:53:59.382Z,18.00
2023-04-18T21:56:27.976Z,19.87
2023-04-18T21:58:56.883Z,18.30
2023-04-18T22:01:25.872Z,16.83
2023-04-18T22:03:56.418Z,15.57
2023-04-18T22:06:26.198Z,12.63
2023-04-18T22:08:54.975Z,14.57
2023-04-18T22:11:23.869Z,14.33
2023-04-18T22:13:54.231Z,20.37
2023-04-18T22:16:24.857Z,12.10
2023-04-18T22:18:57.972Z,13.13
2023-04-18T22:21:26.875Z,14.73
2023-04-18T22:23:55.957Z,13.20
2023-04-18T22:26:25.121Z,14.73
2023-04-18T22:28:58.977Z,14.27
2023-04-18T22:31:28.308Z,13.60
2023-04-18T22:34:00.984Z,12.97
2023-04-18T22:36:29.883Z,11.20
2023-04-18T22:39:00.525Z,14.40
2023-04-18T22:41:31.954Z,15.43
2023-04-18T22:44:00.902Z,13.13
2023-04-18T22:46:33.163Z,13.30
2023-04-18T22:49:03.765Z,14.40
2023-04-18T22:51:32.711Z,18.00
2023-04-18T22:54:02.073Z,23.83
2023-04-18T22:56:31.293Z,17.73
2023-04-18T22:59:00.197Z,23.00
2023-04-18T23:01:28.823Z,17.97
2023-04-18T23:03:57.669Z,19.07
2023-04-18T23:06:28.551Z,20.07
2023-04-18T23:08:57.354Z,19.57
2023-04-18T23:11:26.506Z,20.80
2023-04-18T23:13:55.675Z,20.00
2023-04-18T23:16:24.600Z,18.40
2023-04-18T23:18:53.552Z,19.43
2023-04-18T23:21:22.230Z,18.30
2023-04-18T23:23:52.701Z,20.80
2023-04-18T23:26:21.719Z,19.70
2023-04-18T23:28:50.193Z,23.63
2023-04-18T23:31:19.041Z,21.13
2023-04-18T23:33:48.240Z,16.23
2023-04-18T23:36:17.150Z,21.20
2023-04-18T23:38:45.770Z,21.00
2023-04-18T23:41:18.019Z,20.33
2023-04-18T23:43:47.035Z,16.57
2023-04-18T23:46:16.660Z,23.53
2023-04-18T23:48:45.920Z,21.43
2023-04-18T23:51:14.648Z,19.83
2023-04-18T23:53:45.274Z,15.93
2023-04-18T23:56:16.284Z,19.47
2023-04-18T23:58:46.740Z,22.43
